sensor_id;sensor_type;location;lat;lon;timestamp;pressure;altitude;pressure_sealevel;temperature;humidity
33414;BME280;60055;41.884;12.534;2023-06-05T00:02:11;101022.94;;;22.01;65.44
33414;BME280;60055;41.884;12.534;2023-06-05T00:04:37;101020.44;;;21.87;65.52
33414;BME280;60055;41.884;12.534;2023-06-05T00:07:05;101014.09;;;21.88;65.65
33414;BME280;60055;41.884;12.534;2023-06-05T00:09:30;101020.22;;;21.90;66.09
33414;BME280;60055;41.884;12.534;2023-06-05T00:11:56;101011.19;;;21.91;66.12
33414;BME280;60055;41.884;12.534;2023-06-05T00:14:21;101011.06;;;22.04;65.94
33414;BME280;60055;41.884;12.534;2023-06-05T00:16:47;101010.97;;;22.05;66.65
33414;BME280;60055;41.884;12.534;2023-06-05T00:19:14;101005.84;;;22.13;66.14
33414;BME280;60055;41.884;12.534;2023-06-05T00:21:40;101010.72;;;22.19;66.21
33414;BME280;60055;41.884;12.534;2023-06-05T00:24:06;101012.56;;;22.19;66.50
33414;BME280;60055;41.884;12.534;2023-06-05T00:26:31;101009.00;;;22.29;66.22
33414;BME280;60055;41.884;12.534;2023-06-05T00:28:57;101003.63;;;22.29;65.57
33414;BME280;60055;41.884;12.534;2023-06-05T00:31:22;100998.59;;;22.25;65.52
33414;BME280;60055;41.884;12.534;2023-06-05T00:33:48;101001.69;;;22.20;65.49
33414;BME280;60055;41.884;12.534;2023-06-05T00:36:14;100993.00;;;22.17;65.81
33414;BME280;60055;41.884;12.534;2023-06-05T00:38:39;100993.84;;;22.17;66.16
33414;BME280;60055;41.884;12.534;2023-06-05T00:41:05;100989.06;;;22.21;66.25
33414;BME280;60055;41.884;12.534;2023-06-05T00:43:30;100999.97;;;22.30;66.06
33414;BME280;60055;41.884;12.534;2023-06-05T00:46:01;101000.94;;;22.40;65.38
33414;BME280;60055;41.884;12.534;2023-06-05T00:48:31;101003.84;;;22.37;65.56
33414;BME280;60055;41.884;12.534;2023-06-05T00:50:58;101001.66;;;22.42;65.82
33414;BME280;60055;41.884;12.534;2023-06-05T00:53:24;101007.53;;;22.14;66.84
33414;BME280;60055;41.884;12.534;2023-06-05T00:55:51;101009.72;;;22.31;66.23
33414;BME280;60055;41.884;12.534;2023-06-05T00:58:17;101010.59;;;22.32;67.03
33414;BME280;60055;41.884;12.534;2023-06-05T01:00:43;101003.38;;;22.44;66.95
33414;BME280;60055;41.884;12.534;2023-06-05T01:03:09;101001.78;;;22.52;66.33
33414;BME280;60055;41.884;12.534;2023-06-05T01:05:37;101001.06;;;22.50;66.59
33414;BME280;60055;41.884;12.534;2023-06-05T01:08:03;101003.84;;;22.49;66.18
33414;BME280;60055;41.884;12.534;2023-06-05T01:10:30;101009.47;;;22.57;66.03
33414;BME280;60055;41.884;12.534;2023-06-05T01:13:20;101004.47;;;22.52;66.01
33414;BME280;60055;41.884;12.534;2023-06-05T01:15:47;101012.41;;;22.54;65.77
33414;BME280;60055;41.884;12.534;2023-06-05T01:18:13;101005.78;;;22.58;65.69
33414;BME280;60055;41.884;12.534;2023-06-05T01:20:40;101004.34;;;22.54;65.92
33414;BME280;60055;41.884;12.534;2023-06-05T01:23:07;101003.34;;;22.55;65.97
33414;BME280;60055;41.884;12.534;2023-06-05T01:25:33;101014.72;;;22.58;65.46
33414;BME280;60055;41.884;12.534;2023-06-05T01:28:28;101014.72;;;22.58;66.05
33414;BME280;60055;41.884;12.534;2023-06-05T01:33:31;101023.22;;;22.20;66.74
33414;BME280;60055;41.884;12.534;2023-06-05T01:36:08;101032.72;;;22.24;65.85
33414;BME280;60055;41.884;12.534;2023-06-05T01:38:34;101033.81;;;22.11;64.86
33414;BME280;60055;41.884;12.534;2023-06-05T01:41:03;101034.69;;;22.00;63.27
33414;BME280;60055;41.884;12.534;2023-06-05T01:43:29;101043.41;;;21.80;62.99
33414;BME280;60055;41.884;12.534;2023-06-05T01:45:56;101051.84;;;21.75;63.59
33414;BME280;60055;41.884;12.534;2023-06-05T01:48:24;101049.09;;;21.64;64.62
33414;BME280;60055;41.884;12.534;2023-06-05T01:50:59;101045.13;;;21.81;64.69
33414;BME280;60055;41.884;12.534;2023-06-05T01:53:26;101047.09;;;21.79;65.18
33414;BME280;60055;41.884;12.534;2023-06-05T01:55:52;101038.50;;;21.74;66.47
33414;BME280;60055;41.884;12.534;2023-06-05T01:58:22;101031.28;;;21.74;67.08
33414;BME280;60055;41.884;12.534;2023-06-05T02:00:47;101032.84;;;21.55;67.59
33414;BME280;60055;41.884;12.534;2023-06-05T02:03:13;101024.44;;;21.59;67.66
33414;BME280;60055;41.884;12.534;2023-06-05T02:05:41;101028.38;;;21.66;67.78
33414;BME280;60055;41.884;12.534;2023-06-05T02:08:07;101033.13;;;21.63;67.75
33414;BME280;60055;41.884;12.534;2023-06-05T02:10:34;101030.06;;;21.67;67.73
33414;BME280;60055;41.884;12.534;2023-06-05T02:13:00;101019.69;;;21.63;68.41
33414;BME280;60055;41.884;12.534;2023-06-05T02:15:26;101020.41;;;21.65;68.28
33414;BME280;60055;41.884;12.534;2023-06-05T02:17:51;101028.38;;;21.66;68.22
33414;BME280;60055;41.884;12.534;2023-06-05T02:20:24;101020.31;;;21.66;68.49
33414;BME280;60055;41.884;12.534;2023-06-05T02:22:50;101020.78;;;21.71;68.55
33414;BME280;60055;41.884;12.534;2023-06-05T02:25:17;101018.34;;;21.68;68.21
33414;BME280;60055;41.884;12.534;2023-06-05T02:27:43;101008.69;;;21.66;68.58
33414;BME280;60055;41.884;12.534;2023-06-05T02:30:08;101015.91;;;21.65;68.67
33414;BME280;60055;41.884;12.534;2023-06-05T02:32:35;101007.84;;;21.65;68.66
33414;BME280;60055;41.884;12.534;2023-06-05T02:35:01;101007.84;;;21.65;69.16
33414;BME280;60055;41.884;12.534;2023-06-05T02:37:27;101000.38;;;21.69;68.51
33414;BME280;60055;41.884;12.534;2023-06-05T02:39:53;100998.41;;;21.71;68.46
33414;BME280;60055;41.884;12.534;2023-06-05T02:42:19;101006.47;;;21.71;68.91
33414;BME280;60055;41.884;12.534;2023-06-05T02:44:45;101012.72;;;21.71;68.89
33414;BME280;60055;41.884;12.534;2023-06-05T02:47:11;101010.91;;;21.72;69.25
33414;BME280;60055;41.884;12.534;2023-06-05T02:49:37;101008.56;;;21.67;69.29
33414;BME280;60055;41.884;12.534;2023-06-05T02:52:03;101008.69;;;21.66;69.44
33414;BME280;60055;41.884;12.534;2023-06-05T02:54:29;101007.16;;;21.51;70.53
33414;BME280;60055;41.884;12.534;2023-06-05T02:56:55;101009.88;;;20.79;73.02
33414;BME280;60055;41.884;12.534;2023-06-05T02:59:22;101012.22;;;20.60;74.52
33414;BME280;60055;41.884;12.534;2023-06-05T03:01:50;101019.72;;;20.55;74.77
33414;BME280;60055;41.884;12.534;2023-06-05T03:04:16;101029.53;;;20.44;75.39
33414;BME280;60055;41.884;12.534;2023-06-05T03:06:49;101037.75;;;20.66;74.26
33414;BME280;60055;41.884;12.534;2023-06-05T03:09:15;101044.84;;;20.90;74.49
33414;BME280;60055;41.884;12.534;2023-06-05T03:11:41;101043.50;;;21.09;73.87
33414;BME280;60055;41.884;12.534;2023-06-05T03:14:06;101035.34;;;21.10;73.94
33414;BME280;60055;41.884;12.534;2023-06-05T03:16:32;101034.00;;;20.56;75.30
33414;BME280;60055;41.884;12.534;2023-06-05T03:19:07;101033.50;;;20.25;76.64
33414;BME280;60055;41.884;12.534;2023-06-05T03:21:32;101035.56;;;20.09;77.79
33414;BME280;60055;41.884;12.534;2023-06-05T03:23:58;101020.75;;;20.16;77.34
33414;BME280;60055;41.884;12.534;2023-06-05T03:26:23;101013.13;;;20.23;76.89
33414;BME280;60055;41.884;12.534;2023-06-05T03:28:50;101019.47;;;20.34;75.79
33414;BME280;60055;41.884;12.534;2023-06-05T03:31:16;101012.50;;;20.32;75.61
33414;BME280;60055;41.884;12.534;2023-06-05T03:33:41;101015.94;;;20.34;75.73
33414;BME280;60055;41.884;12.534;2023-06-05T03:36:07;101015.91;;;20.47;75.35
33414;BME280;60055;41.884;12.534;2023-06-05T03:38:33;101009.50;;;20.36;76.32
33414;BME280;60055;41.884;12.534;2023-06-05T03:40:59;101010.44;;;20.35;76.17
33414;BME280;60055;41.884;12.534;2023-06-05T03:43:24;100997.25;;;20.20;76.44
33414;BME280;60055;41.884;12.534;2023-06-05T03:45:52;101000.34;;;20.26;75.99
33414;BME280;60055;41.884;12.534;2023-06-05T03:48:18;101010.22;;;20.26;76.42
33414;BME280;60055;41.884;12.534;2023-06-05T03:50:46;101011.44;;;20.34;75.97
33414;BME280;60055;41.884;12.534;2023-06-05T03:53:13;101009.25;;;20.39;75.89
33414;BME280;60055;41.884;12.534;2023-06-05T03:55:39;101013.13;;;20.23;75.60
33414;BME280;60055;41.884;12.534;2023-06-05T03:58:14;101015.59;;;20.26;75.80
33414;BME280;60055;41.884;12.534;2023-06-05T04:00:41;101007.47;;;20.27;75.79
33414;BME280;60055;41.884;12.534;2023-06-05T04:03:08;101012.16;;;20.24;75.23
33414;BME280;60055;41.884;12.534;2023-06-05T04:05:35;101021.19;;;20.35;74.78
33414;BME280;60055;41.884;12.534;2023-06-05T04:08:01;101019.56;;;20.33;74.88
33414;BME280;60055;41.884;12.534;2023-06-05T04:10:27;101020.84;;;20.40;74.46
33414;BME280;60055;41.884;12.534;2023-06-05T04:12:52;101028.34;;;20.48;74.42
33414;BME280;60055;41.884;12.534;2023-06-05T04:15:18;101029.41;;;20.45;73.96
33414;BME280;60055;41.884;12.534;2023-06-05T04:17:43;101029.81;;;20.64;73.34
33414;BME280;60055;41.884;12.534;2023-06-05T04:20:09;101026.91;;;20.67;73.72
33414;BME280;60055;41.884;12.534;2023-06-05T04:22:39;101017.50;;;20.49;73.13
33414;BME280;60055;41.884;12.534;2023-06-05T04:25:05;101021.84;;;20.63;73.02
33414;BME280;60055;41.884;12.534;2023-06-05T04:27:30;101028.91;;;20.40;73.42
33414;BME280;60055;41.884;12.534;2023-06-05T04:29:56;101026.31;;;20.51;73.68
33414;BME280;60055;41.884;12.534;2023-06-05T04:32:22;101016.31;;;20.53;73.87
33414;BME280;60055;41.884;12.534;2023-06-05T04:34:47;101023.81;;;20.48;74.14
33414;BME280;60055;41.884;12.534;2023-06-05T04:37:13;101011.50;;;20.46;73.94
33414;BME280;60055;41.884;12.534;2023-06-05T04:39:38;101008.09;;;20.44;74.41
33414;BME280;60055;41.884;12.534;2023-06-05T04:42:04;101010.91;;;20.66;73.21
33414;BME280;60055;41.884;12.534;2023-06-05T04:44:30;101005.31;;;20.69;73.11
33414;BME280;60055;41.884;12.534;2023-06-05T04:46:56;101007.66;;;20.73;73.23
33414;BME280;60055;41.884;12.534;2023-06-05T04:49:22;101007.88;;;20.70;72.97
33414;BME280;60055;41.884;12.534;2023-06-05T04:51:48;101005.22;;;20.70;73.08
33414;BME280;60055;41.884;12.534;2023-06-05T04:54:14;101002.53;;;20.70;73.15
33414;BME280;60055;41.884;12.534;2023-06-05T04:56:40;100995.59;;;20.79;72.55
33414;BME280;60055;41.884;12.534;2023-06-05T04:59:05;100992.25;;;20.52;73.41
33414;BME280;60055;41.884;12.534;2023-06-05T05:01:32;100994.84;;;20.53;73.31
33414;BME280;60055;41.884;12.534;2023-06-05T05:03:58;100992.66;;;20.58;73.85
33414;BME280;60055;41.884;12.534;2023-06-05T05:06:25;100995.25;;;20.60;73.58
33414;BME280;60055;41.884;12.534;2023-06-05T05:08:51;100989.94;;;20.47;74.42
33414;BME280;60055;41.884;12.534;2023-06-05T05:11:17;100988.94;;;20.48;74.23
33414;BME280;60055;41.884;12.534;2023-06-05T05:13:43;100983.78;;;20.58;74.04
33414;BME280;60055;41.884;12.534;2023-06-05T05:16:09;100984.44;;;20.49;74.16
33414;BME280;60055;41.884;12.534;2023-06-05T05:18:35;100990.97;;;20.57;73.87
33414;BME280;60055;41.884;12.534;2023-06-05T05:21:02;100990.00;;;20.58;73.78
33414;BME280;60055;41.884;12.534;2023-06-05T05:23:30;100991.47;;;20.75;73.29
33414;BME280;60055;41.884;12.534;2023-06-05T05:25:56;100989.88;;;20.60;73.76
33414;BME280;60055;41.884;12.534;2023-06-05T05:28:21;100987.09;;;20.61;74.06
33414;BME280;60055;41.884;12.534;2023-06-05T05:30:47;100993.31;;;20.62;73.80
33414;BME280;60055;41.884;12.534;2023-06-05T05:33:12;100998.50;;;20.52;74.30
33414;BME280;60055;41.884;12.534;2023-06-05T05:35:39;101001.44;;;20.36;74.97
33414;BME280;60055;41.884;12.534;2023-06-05T05:38:04;101001.88;;;20.30;74.78
33414;BME280;60055;41.884;12.534;2023-06-05T05:40:29;101006.47;;;20.16;75.30
33414;BME280;60055;41.884;12.534;2023-06-05T05:42:55;101012.41;;;19.96;75.51
33414;BME280;60055;41.884;12.534;2023-06-05T05:45:20;101004.44;;;19.94;76.31
33414;BME280;60055;41.884;12.534;2023-06-05T05:47:46;101012.50;;;19.94;75.89
33414;BME280;60055;41.884;12.534;2023-06-05T05:50:11;101007.78;;;20.10;75.29
33414;BME280;60055;41.884;12.534;2023-06-05T05:52:37;101011.75;;;20.05;75.56
33414;BME280;60055;41.884;12.534;2023-06-05T05:55:04;101000.16;;;20.29;75.16
33414;BME280;60055;41.884;12.534;2023-06-05T05:57:30;101010.63;;;20.45;74.04
33414;BME280;60055;41.884;12.534;2023-06-05T05:59:55;101006.09;;;20.58;73.37
33414;BME280;60055;41.884;12.534;2023-06-05T06:02:21;101014.56;;;20.65;73.17
33414;BME280;60055;41.884;12.534;2023-06-05T06:04:47;101020.00;;;20.76;73.02
33414;BME280;60055;41.884;12.534;2023-06-05T06:07:13;101019.34;;;20.85;72.28
33414;BME280;60055;41.884;12.534;2023-06-05T06:09:39;101022.66;;;20.88;72.98
33414;BME280;60055;41.884;12.534;2023-06-05T06:12:05;101027.97;;;21.01;72.36
33414;BME280;60055;41.884;12.534;2023-06-05T06:14:33;101049.94;;;21.06;72.28
33414;BME280;60055;41.884;12.534;2023-06-05T06:16:58;101035.00;;;21.02;72.76
33414;BME280;60055;41.884;12.534;2023-06-05T06:19:24;101041.38;;;21.01;73.06
33414;BME280;60055;41.884;12.534;2023-06-05T06:21:50;101045.31;;;21.08;72.83
33414;BME280;60055;41.884;12.534;2023-06-05T06:24:17;101049.16;;;21.17;71.83
33414;BME280;60055;41.884;12.534;2023-06-05T06:26:46;101050.44;;;21.24;71.50
33414;BME280;60055;41.884;12.534;2023-06-05T06:29:23;101047.81;;;21.11;71.68
33414;BME280;60055;41.884;12.534;2023-06-05T06:31:49;101045.84;;;21.13;71.66
33414;BME280;60055;41.884;12.534;2023-06-05T06:34:16;101041.25;;;21.03;72.07
33414;BME280;60055;41.884;12.534;2023-06-05T06:36:42;101041.88;;;21.06;71.38
33414;BME280;60055;41.884;12.534;2023-06-05T06:39:09;101036.69;;;21.16;70.79
33414;BME280;60055;41.884;12.534;2023-06-05T06:41:36;101031.38;;;21.27;70.63
33414;BME280;60055;41.884;12.534;2023-06-05T06:44:03;101032.78;;;21.32;69.97
33414;BME280;60055;41.884;12.534;2023-06-05T06:46:29;101039.59;;;21.36;69.42
33414;BME280;60055;41.884;12.534;2023-06-05T06:48:55;101034.84;;;21.40;69.69
33414;BME280;60055;41.884;12.534;2023-06-05T06:51:21;101046.38;;;21.18;69.65
33414;BME280;60055;41.884;12.534;2023-06-05T06:53:50;101036.19;;;21.34;69.43
33414;BME280;60055;41.884;12.534;2023-06-05T06:56:16;101029.88;;;21.47;69.00
33414;BME280;60055;41.884;12.534;2023-06-05T06:58:45;101041.13;;;21.52;68.69
33414;BME280;60055;41.884;12.534;2023-06-05T07:01:11;101031.94;;;21.43;68.76
33414;BME280;60055;41.884;12.534;2023-06-05T07:03:38;101029.81;;;21.24;68.90
33414;BME280;60055;41.884;12.534;2023-06-05T07:06:05;101033.03;;;21.40;68.81
33414;BME280;60055;41.884;12.534;2023-06-05T07:08:30;101036.19;;;21.34;68.60
33414;BME280;60055;41.884;12.534;2023-06-05T07:10:56;101038.16;;;21.32;68.89
33414;BME280;60055;41.884;12.534;2023-06-05T07:13:22;101033.78;;;21.43;69.49
33414;BME280;60055;41.884;12.534;2023-06-05T07:15:48;101032.97;;;21.29;69.00
33414;BME280;60055;41.884;12.534;2023-06-05T07:18:14;101035.34;;;21.34;69.29
33414;BME280;60055;41.884;12.534;2023-06-05T07:20:39;101042.28;;;21.36;69.43
33414;BME280;60055;41.884;12.534;2023-06-05T07:23:05;101034.28;;;21.48;68.98
33414;BME280;60055;41.884;12.534;2023-06-05T07:25:30;101034.00;;;21.74;68.71
33414;BME280;60055;41.884;12.534;2023-06-05T07:27:57;101034.59;;;21.78;69.23
33414;BME280;60055;41.884;12.534;2023-06-05T07:30:27;101033.50;;;21.69;68.77
33414;BME280;60055;41.884;12.534;2023-06-05T07:32:54;101035.13;;;21.83;68.98
33414;BME280;60055;41.884;12.534;2023-06-05T07:35:20;101033.47;;;22.26;68.11
33414;BME280;60055;41.884;12.534;2023-06-05T07:37:46;101033.44;;;22.37;68.11
33414;BME280;60055;41.884;12.534;2023-06-05T07:40:11;101038.22;;;22.45;67.67
33414;BME280;60055;41.884;12.534;2023-06-05T07:42:37;101025.47;;;22.58;67.25
33414;BME280;60055;41.884;12.534;2023-06-05T07:45:02;101024.16;;;22.64;66.75
33414;BME280;60055;41.884;12.534;2023-06-05T07:47:28;101025.50;;;22.69;67.12
33414;BME280;60055;41.884;12.534;2023-06-05T07:49:57;101017.81;;;22.42;66.68
33414;BME280;60055;41.884;12.534;2023-06-05T07:52:24;101033.97;;;22.54;66.40
33414;BME280;60055;41.884;12.534;2023-06-05T07:54:50;101027.22;;;22.48;66.38
33414;BME280;60055;41.884;12.534;2023-06-05T07:57:16;101028.56;;;22.76;64.67
33414;BME280;60055;41.884;12.534;2023-06-05T07:59:43;101022.94;;;23.11;64.03
33414;BME280;60055;41.884;12.534;2023-06-05T08:02:08;101028.56;;;23.39;63.26
33414;BME280;60055;41.884;12.534;2023-06-05T08:04:33;101022.25;;;23.29;63.06
33414;BME280;60055;41.884;12.534;2023-06-05T08:07:00;101025.28;;;23.36;63.08
33414;BME280;60055;41.884;12.534;2023-06-05T08:09:26;101031.00;;;23.54;63.49
33414;BME280;60055;41.884;12.534;2023-06-05T08:11:54;101020.00;;;23.66;62.70
33414;BME280;60055;41.884;12.534;2023-06-05T08:14:20;101023.19;;;23.71;62.70
33414;BME280;60055;41.884;12.534;2023-06-05T08:16:45;101021.41;;;23.61;62.40
33414;BME280;60055;41.884;12.534;2023-06-05T08:19:11;101019.28;;;23.85;61.76
33414;BME280;60055;41.884;12.534;2023-06-05T08:21:36;101018.16;;;24.38;59.89
33414;BME280;60055;41.884;12.534;2023-06-05T08:24:02;101015.63;;;24.96;58.15
33414;BME280;60055;41.884;12.534;2023-06-05T08:26:28;101009.97;;;25.37;57.50
33414;BME280;60055;41.884;12.534;2023-06-05T08:28:53;101013.94;;;25.14;57.24
33414;BME280;60055;41.884;12.534;2023-06-05T08:31:19;101006.25;;;25.19;56.66
33414;BME280;60055;41.884;12.534;2023-06-05T08:33:44;101018.78;;;25.11;57.90
33414;BME280;60055;41.884;12.534;2023-06-05T08:36:10;101011.50;;;24.92;58.01
33414;BME280;60055;41.884;12.534;2023-06-05T08:38:35;101014.72;;;24.76;58.85
33414;BME280;60055;41.884;12.534;2023-06-05T08:41:06;101026.97;;;24.40;59.18
33414;BME280;60055;41.884;12.534;2023-06-05T08:43:39;101020.56;;;24.41;59.13
33414;BME280;60055;41.884;12.534;2023-06-05T08:46:08;101030.41;;;24.42;59.98
33414;BME280;60055;41.884;12.534;2023-06-05T08:48:47;101029.59;;;24.61;58.76
33414;BME280;60055;41.884;12.534;2023-06-05T08:51:14;101028.34;;;24.75;58.43
33414;BME280;60055;41.884;12.534;2023-06-05T08:53:43;101038.94;;;24.57;57.83
33414;BME280;60055;41.884;12.534;2023-06-05T08:56:11;101025.56;;;24.46;57.01
33414;BME280;60055;41.884;12.534;2023-06-05T08:58:36;101030.97;;;24.46;57.35
33414;BME280;60055;41.884;12.534;2023-06-05T09:01:02;101027.72;;;24.52;57.26
33414;BME280;60055;41.884;12.534;2023-06-05T09:03:28;101022.25;;;24.33;57.57
33414;BME280;60055;41.884;12.534;2023-06-05T09:05:53;101028.50;;;24.33;57.86
33414;BME280;60055;41.884;12.534;2023-06-05T09:08:27;101037.25;;;24.47;57.56
33414;BME280;60055;41.884;12.534;2023-06-05T09:11:22;101026.19;;;24.59;56.42
33414;BME280;60055;41.884;12.534;2023-06-05T09:13:47;101024.22;;;24.71;56.00
33414;BME280;60055;41.884;12.534;2023-06-05T09:16:13;101019.97;;;24.78;55.97
33414;BME280;60055;41.884;12.534;2023-06-05T09:21:17;101020.16;;;24.86;54.87
33414;BME280;60055;41.884;12.534;2023-06-05T09:23:42;101016.75;;;24.84;54.79
33414;BME280;60055;41.884;12.534;2023-06-05T09:26:10;101023.16;;;24.83;55.23
33414;BME280;60055;41.884;12.534;2023-06-05T09:28:54;101025.78;;;24.64;55.28
33414;BME280;60055;41.884;12.534;2023-06-05T09:31:20;101022.88;;;24.46;54.51
33414;BME280;60055;41.884;12.534;2023-06-05T09:33:54;101029.16;;;24.56;53.91
33414;BME280;60055;41.884;12.534;2023-06-05T09:36:20;101021.97;;;24.76;52.75
33414;BME280;60055;41.884;12.534;2023-06-05T09:38:46;101025.94;;;24.81;50.72
33414;BME280;60055;41.884;12.534;2023-06-05T09:41:13;101021.88;;;24.87;50.04
33414;BME280;60055;41.884;12.534;2023-06-05T09:43:45;101022.06;;;25.14;49.76
33414;BME280;60055;41.884;12.534;2023-06-05T09:46:13;101018.84;;;24.80;49.59
33414;BME280;60055;41.884;12.534;2023-06-05T09:48:39;101025.38;;;24.78;49.65
33414;BME280;60055;41.884;12.534;2023-06-05T09:53:42;101023.84;;;24.85;49.92
33414;BME280;60055;41.884;12.534;2023-06-05T09:56:12;101014.94;;;24.94;50.58
33414;BME280;60055;41.884;12.534;2023-06-05T09:58:41;101023.72;;;24.96;51.26
33414;BME280;60055;41.884;12.534;2023-06-05T10:01:08;101026.72;;;24.83;52.01
33414;BME280;60055;41.884;12.534;2023-06-05T10:03:36;101018.59;;;24.43;52.41
33414;BME280;60055;41.884;12.534;2023-06-05T10:06:04;101013.69;;;24.68;52.75
33414;BME280;60055;41.884;12.534;2023-06-05T10:08:30;101008.97;;;25.00;51.84
33414;BME280;60055;41.884;12.534;2023-06-05T10:10:57;101003.84;;;24.97;52.29
33414;BME280;60055;41.884;12.534;2023-06-05T10:13:22;101003.44;;;25.21;51.17
33414;BME280;60055;41.884;12.534;2023-06-05T10:15:48;101018.63;;;25.03;51.69
33414;BME280;60055;41.884;12.534;2023-06-05T10:18:17;101002.69;;;25.19;51.65
33414;BME280;60055;41.884;12.534;2023-06-05T10:20:43;101005.84;;;25.33;51.12
33414;BME280;60055;41.884;12.534;2023-06-05T10:23:14;101010.38;;;25.42;50.81
33414;BME280;60055;41.884;12.534;2023-06-05T10:25:41;101007.25;;;25.37;50.83
33414;BME280;60055;41.884;12.534;2023-06-05T10:28:18;101009.09;;;25.56;50.63
33414;BME280;60055;41.884;12.534;2023-06-05T10:33:29;101002.72;;;25.38;51.04
33414;BME280;60055;41.884;12.534;2023-06-05T10:36:10;101016.66;;;25.14;51.57
33414;BME280;60055;41.884;12.534;2023-06-05T10:38:41;101011.53;;;25.30;51.64
33414;BME280;60055;41.884;12.534;2023-06-05T10:41:08;101009.56;;;25.52;50.97
33414;BME280;60055;41.884;12.534;2023-06-05T10:43:52;101003.41;;;25.40;51.85
33414;BME280;60055;41.884;12.534;2023-06-05T10:46:36;100997.72;;;25.53;51.58
33414;BME280;60055;41.884;12.534;2023-06-05T10:54:12;100995.72;;;25.35;52.47
33414;BME280;60055;41.884;12.534;2023-06-05T11:07:18;100989.19;;;25.09;53.00
33414;BME280;60055;41.884;12.534;2023-06-05T11:15:11;100989.47;;;25.16;52.18
33414;BME280;60055;41.884;12.534;2023-06-05T11:17:39;100981.34;;;25.16;52.19
33414;BME280;60055;41.884;12.534;2023-06-05T11:27:51;100974.81;;;25.28;52.78
33414;BME280;60055;41.884;12.534;2023-06-05T11:30:21;100969.28;;;25.10;53.33
33414;BME280;60055;41.884;12.534;2023-06-05T11:32:47;100967.97;;;25.33;53.08
33414;BME280;60055;41.884;12.534;2023-06-05T11:35:13;100967.00;;;25.15;53.48
33414;BME280;60055;41.884;12.534;2023-06-05T11:37:39;100959.16;;;25.12;54.07
33414;BME280;60055;41.884;12.534;2023-06-05T11:40:06;100957.88;;;25.26;53.83
33414;BME280;60055;41.884;12.534;2023-06-05T11:42:35;100955.16;;;25.35;53.99
33414;BME280;60055;41.884;12.534;2023-06-05T11:45:02;100959.44;;;25.38;53.88
33414;BME280;60055;41.884;12.534;2023-06-05T11:47:28;100956.75;;;25.00;55.56
33414;BME280;60055;41.884;12.534;2023-06-05T11:50:15;100947.38;;;25.04;55.01
33414;BME280;60055;41.884;12.534;2023-06-05T11:52:42;100957.75;;;25.18;54.21
33414;BME280;60055;41.884;12.534;2023-06-05T11:55:12;100952.06;;;25.02;54.41
33414;BME280;60055;41.884;12.534;2023-06-05T11:57:43;100950.22;;;25.02;54.29
33414;BME280;60055;41.884;12.534;2023-06-05T12:00:09;100943.94;;;25.30;53.17
33414;BME280;60055;41.884;12.534;2023-06-05T12:02:37;100947.22;;;25.34;53.15
33414;BME280;60055;41.884;12.534;2023-06-05T12:05:02;100949.91;;;25.34;53.50
33414;BME280;60055;41.884;12.534;2023-06-05T12:07:29;100952.75;;;25.32;53.35
33414;BME280;60055;41.884;12.534;2023-06-05T12:09:55;100957.44;;;25.40;53.26
33414;BME280;60055;41.884;12.534;2023-06-05T12:12:20;100952.03;;;25.11;53.57
33414;BME280;60055;41.884;12.534;2023-06-05T12:14:46;100955.06;;;25.18;53.23
33414;BME280;60055;41.884;12.534;2023-06-05T12:17:11;100943.06;;;25.39;52.73
33414;BME280;60055;41.884;12.534;2023-06-05T12:19:37;100939.69;;;25.28;53.03
33414;BME280;60055;41.884;12.534;2023-06-05T12:22:05;100948.25;;;25.04;53.87
33414;BME280;60055;41.884;12.534;2023-06-05T12:24:31;100939.25;;;25.23;53.22
33414;BME280;60055;41.884;12.534;2023-06-05T12:26:59;100942.94;;;25.22;53.50
33414;BME280;60055;41.884;12.534;2023-06-05T12:29:28;100939.22;;;25.32;53.35
33414;BME280;60055;41.884;12.534;2023-06-05T12:31:55;100941.34;;;25.48;53.14
33414;BME280;60055;41.884;12.534;2023-06-05T12:34:44;100934.81;;;25.97;51.92
33414;BME280;60055;41.884;12.534;2023-06-05T12:37:24;100935.63;;;26.07;51.43
33414;BME280;60055;41.884;12.534;2023-06-05T12:39:53;100937.34;;;26.08;51.81
33414;BME280;60055;41.884;12.534;2023-06-05T12:42:18;100931.72;;;25.82;52.16
33414;BME280;60055;41.884;12.534;2023-06-05T12:44:44;100934.31;;;25.84;52.57
33414;BME280;60055;41.884;12.534;2023-06-05T12:47:09;100929.84;;;25.92;51.98
33414;BME280;60055;41.884;12.534;2023-06-05T12:49:35;100924.97;;;26.06;51.32
33414;BME280;60055;41.884;12.534;2023-06-05T12:52:00;100923.34;;;26.40;49.95
33414;BME280;60055;41.884;12.534;2023-06-05T12:54:27;100931.38;;;26.59;49.19
33414;BME280;60055;41.884;12.534;2023-06-05T12:56:53;100920.75;;;26.48;48.21
33414;BME280;60055;41.884;12.534;2023-06-05T12:59:20;100919.91;;;26.48;48.78
33414;BME280;60055;41.884;12.534;2023-06-05T13:01:46;100915.13;;;26.05;50.05
33414;BME280;60055;41.884;12.534;2023-06-05T13:04:12;100908.34;;;26.28;49.69
33414;BME280;60055;41.884;12.534;2023-06-05T13:06:37;100908.22;;;26.65;48.91
33414;BME280;60055;41.884;12.534;2023-06-05T13:09:03;100909.94;;;26.66;48.92
33414;BME280;60055;41.884;12.534;2023-06-05T13:11:29;100909.97;;;26.38;49.26
33414;BME280;60055;41.884;12.534;2023-06-05T13:13:55;100908.66;;;26.25;49.31
33414;BME280;60055;41.884;12.534;2023-06-05T13:16:20;100913.94;;;25.80;50.90
33414;BME280;60055;41.884;12.534;2023-06-05T13:18:46;100921.47;;;25.86;50.95
33414;BME280;60055;41.884;12.534;2023-06-05T13:21:11;100923.13;;;25.60;51.42